createdAt,value
2022-10-31T00:00:54.474Z,15.07
2022-10-31T00:03:22.754Z,15.30
2022-10-31T00:05:52.066Z,15.48
2022-10-31T00:08:20.967Z,15.70
2022-10-31T00:10:50.525Z,16.02
2022-10-31T00:13:18.901Z,15.57
2022-10-31T00:15:47.107Z,15.32
2022-10-31T00:18:15.363Z,16.15
2022-10-31T00:20:43.611Z,15.93
2022-10-31T00:23:12.658Z,15.25
2022-10-31T00:25:42.087Z,15.70
2022-10-31T00:28:13.685Z,15.25
2022-10-31T00:30:41.969Z,15.90
2022-10-31T00:33:10.254Z,15.93
2022-10-31T00:35:38.848Z,16.73
2022-10-31T00:38:06.972Z,16.38
2022-10-31T00:40:35.162Z,16.00
2022-10-31T00:43:03.871Z,15.60
2022-10-31T00:45:34.369Z,15.70
2022-10-31T00:48:03.005Z,16.30
2022-10-31T00:50:32.394Z,16.33
2022-10-31T00:53:01.548Z,15.82
2022-10-31T00:55:29.783Z,15.52
2022-10-31T00:57:58.474Z,15.65
2022-10-31T01:00:27.560Z,16.30
2022-10-31T01:02:57.296Z,16.35
2022-10-31T01:05:26.094Z,15.32
2022-10-31T01:07:54.250Z,16.00
2022-10-31T01:10:22.470Z,15.68
2022-10-31T01:12:52.346Z,16.55
2022-10-31T01:15:25.292Z,17.23
2022-10-31T01:17:53.527Z,16.45
2022-10-31T01:20:23.182Z,16.17
2022-10-31T01:22:51.466Z,15.43
2022-10-31T01:25:19.750Z,15.30
2022-10-31T01:27:50.074Z,17.05
2022-10-31T01:30:18.384Z,16.67
2022-10-31T01:32:46.562Z,16.30
2022-10-31T01:35:14.934Z,16.80
2022-10-31T01:37:44.423Z,16.15
2022-10-31T01:40:12.889Z,17.02
2022-10-31T01:42:41.033Z,17.33
2022-10-31T01:45:12.583Z,16.92
2022-10-31T01:47:45.362Z,16.40
2022-10-31T01:50:22.314Z,17.08
2022-10-31T01:52:53.971Z,15.38
2022-10-31T01:55:26.474Z,17.70
2022-10-31T01:58:01.379Z,17.20
2022-10-31T02:00:30.176Z,16.33
2022-10-31T02:02:58.627Z,18.08
2022-10-31T02:05:30.564Z,19.02
2022-10-31T02:08:05.054Z,18.90
2022-10-31T02:10:35.150Z,20.85
2022-10-31T02:13:05.928Z,20.00
2022-10-31T02:15:40.050Z,21.45
2022-10-31T02:18:09.635Z,21.45
2022-10-31T02:20:47.635Z,22.42
2022-10-31T02:23:35.899Z,24.40
2022-10-31T02:26:30.836Z,24.63
2022-10-31T02:29:10.987Z,22.40
2022-10-31T02:31:46.915Z,25.17
2022-10-31T02:34:21.608Z,22.23
2022-10-31T02:36:57.768Z,25.20
2022-10-31T02:39:30.168Z,26.65
2022-10-31T02:42:06.780Z,26.75
2022-10-31T02:44:41.419Z,25.02
2022-10-31T02:47:15.732Z,26.88
2022-10-31T02:49:50.535Z,26.58
2022-10-31T02:52:23.471Z,27.33
2022-10-31T02:54:52.678Z,27.48
2022-10-31T02:57:25.694Z,27.17
2022-10-31T02:59:58.505Z,27.58
2022-10-31T03:02:49.815Z,29.13
2022-10-31T03:05:39.878Z,28.67
2022-10-31T03:08:15.450Z,29.27
2022-10-31T03:10:49.767Z,30.10
2022-10-31T03:13:26.314Z,30.05
2022-10-31T03:16:02.063Z,31.25
2022-10-31T03:18:36.717Z,30.02
2022-10-31T03:21:10.546Z,31.15
2022-10-31T03:23:40.055Z,30.33
2022-10-31T03:26:11.420Z,31.77
2022-10-31T03:28:45.551Z,31.90
2022-10-31T03:31:18.763Z,32.83
2022-10-31T03:33:52.286Z,31.15
2022-10-31T03:36:21.011Z,30.98
2022-10-31T03:38:50.188Z,29.60
2022-10-31T03:41:23.558Z,28.70
2022-10-31T03:43:56.579Z,30.05
2022-10-31T03:46:27.408Z,30.73
2022-10-31T03:49:00.806Z,32.55
2022-10-31T03:51:39.418Z,27.98
2022-10-31T03:54:16.298Z,29.02
2022-10-31T03:56:51.932Z,28.92
2022-10-31T03:59:25.386Z,30.60
2022-10-31T04:01:59.472Z,30.58
2022-10-31T04:04:30.454Z,29.75
2022-10-31T04:07:00.732Z,29.15
2022-10-31T04:09:31.857Z,29.10
2022-10-31T04:12:01.927Z,30.90
2022-10-31T04:14:51.565Z,28.90
2022-10-31T04:17:22.008Z,32.40
2022-10-31T04:19:51.648Z,28.95
2022-10-31T04:22:20.381Z,28.27
2022-10-31T04:24:48.656Z,29.30
2022-10-31T04:27:18.646Z,29.15
2022-10-31T04:29:50.718Z,28.35
2022-10-31T04:32:20.491Z,28.73
2022-10-31T04:34:48.609Z,27.35
2022-10-31T04:37:18.116Z,28.55
2022-10-31T04:39:46.276Z,27.83
2022-10-31T04:42:33.230Z,28.30
2022-10-31T04:45:05.275Z,27.75
2022-10-31T04:47:35.476Z,29.83
2022-10-31T04:50:04.786Z,29.52
2022-10-31T04:52:41.344Z,27.60
2022-10-31T04:55:11.618Z,28.33
2022-10-31T04:57:47.627Z,27.85
2022-10-31T05:00:19.409Z,28.88
2022-10-31T05:02:48.373Z,27.95
2022-10-31T05:05:17.949Z,27.55
2022-10-31T05:07:49.515Z,26.92
2022-10-31T05:10:21.895Z,28.00
2022-10-31T05:12:53.685Z,27.33
2022-10-31T05:15:44.723Z,27.98
2022-10-31T05:18:19.252Z,27.45
2022-10-31T05:21:06.431Z,25.83
2022-10-31T05:23:45.853Z,26.90
2022-10-31T05:26:16.628Z,25.85
2022-10-31T05:28:44.797Z,26.58
2022-10-31T05:31:13.257Z,26.05
2022-10-31T05:33:43.335Z,25.48
2022-10-31T05:36:49.731Z,25.58
2022-10-31T05:39:20.846Z,25.48
2022-10-31T05:41:51.709Z,24.35
2022-10-31T05:44:27.489Z,24.48
2022-10-31T05:47:18.231Z,25.95
2022-10-31T05:50:06.223Z,26.63
2022-10-31T05:52:58.595Z,25.23
2022-10-31T05:55:39.020Z,22.52
2022-10-31T05:58:16.380Z,24.08
2022-10-31T06:00:52.045Z,24.27
2022-10-31T06:03:20.364Z,25.70
2022-10-31T06:05:54.961Z,25.60
2022-10-31T06:08:26.629Z,24.67
2022-10-31T06:10:58.016Z,26.10
2022-10-31T06:13:52.112Z,27.60
2022-10-31T06:16:25.439Z,27.85
2022-10-31T06:18:56.181Z,26.73
2022-10-31T06:21:24.637Z,28.00
2022-10-31T06:23:53.574Z,29.75
2022-10-31T06:26:49.251Z,28.23
2022-10-31T06:29:17.417Z,28.25
2022-10-31T06:32:18.346Z,27.77
2022-10-31T06:34:49.726Z,27.67
2022-10-31T06:37:17.980Z,27.35
2022-10-31T06:39:49.070Z,28.30
2022-10-31T06:42:19.852Z,26.75
2022-10-31T06:44:48.252Z,27.55
2022-10-31T06:48:03.851Z,26.88
2022-10-31T06:50:34.542Z,25.83
2022-10-31T06:53:03.682Z,25.63
2022-10-31T06:55:31.858Z,24.58
2022-10-31T06:58:03.411Z,25.88
2022-10-31T07:00:34.418Z,25.50
2022-10-31T07:03:12.189Z,25.58
2022-10-31T07:05:40.661Z,26.33
2022-10-31T07:08:11.456Z,25.67
2022-10-31T07:10:41.641Z,25.13
2022-10-31T07:13:14.074Z,25.08
2022-10-31T07:15:46.941Z,24.15
2022-10-31T07:18:15.192Z,25.08
2022-10-31T07:20:44.421Z,24.45
2022-10-31T07:23:13.439Z,23.23
2022-10-31T07:25:44.012Z,21.85
2022-10-31T07:28:25.177Z,22.67
2022-10-31T07:30:54.455Z,22.23
2022-10-31T07:33:23.780Z,23.30
2022-10-31T07:36:17.835Z,22.95
2022-10-31T07:38:47.431Z,22.17
2022-10-31T07:41:15.979Z,23.13
2022-10-31T07:43:47.820Z,23.75
2022-10-31T07:46:36.321Z,22.75
2022-10-31T07:49:22.940Z,23.90
2022-10-31T07:52:14.509Z,21.75
2022-10-31T07:55:09.762Z,22.52
2022-10-31T07:57:38.760Z,23.10
2022-10-31T08:00:12.234Z,22.00
2022-10-31T08:02:43.525Z,21.90
2022-10-31T08:05:50.134Z,21.40
2022-10-31T08:08:32.299Z,22.23
2022-10-31T08:11:04.289Z,22.33
2022-10-31T08:13:32.470Z,21.70
2022-10-31T08:16:05.014Z,21.55
2022-10-31T08:18:39.126Z,20.30
2022-10-31T08:21:11.507Z,19.80
2022-10-31T08:23:39.859Z,20.13
2022-10-31T08:26:09.551Z,20.05
2022-10-31T08:28:38.056Z,20.83
2022-10-31T08:31:07.863Z,19.55
2022-10-31T08:33:42.051Z,18.27
2022-10-31T08:36:30.070Z,17.23
2022-10-31T08:39:01.906Z,16.27
2022-10-31T08:41:32.011Z,17.08
2022-10-31T08:44:01.821Z,15.90
2022-10-31T08:46:31.429Z,15.93
2022-10-31T08:49:00.220Z,15.90
2022-10-31T08:51:28.574Z,16.00
2022-10-31T08:53:57.917Z,16.50
2022-10-31T08:56:35.119Z,16.50
2022-10-31T08:59:06.473Z,16.08
2022-10-31T09:02:01.920Z,15.95
2022-10-31T09:04:31.091Z,17.23
2022-10-31T09:07:20.216Z,16.08
2022-10-31T09:09:48.377Z,17.45
2022-10-31T09:12:16.681Z,18.15
2022-10-31T09:15:14.484Z,17.00
2022-10-31T09:17:51.627Z,17.95
2022-10-31T09:20:29.436Z,17.52
2022-10-31T09:22:58.859Z,18.05
2022-10-31T09:25:27.125Z,19.02
2022-10-31T09:28:16.946Z,18.92
2022-10-31T09:30:49.002Z,18.98
2022-10-31T09:33:24.780Z,19.08
2022-10-31T09:36:12.994Z,21.63
2022-10-31T09:38:43.267Z,21.05
2022-10-31T09:41:23.203Z,21.70
2022-10-31T09:44:02.125Z,21.98
2022-10-31T09:46:38.888Z,22.13
2022-10-31T09:49:48.259Z,21.55
2022-10-31T09:52:24.646Z,22.02
2022-10-31T09:54:57.555Z,20.75
2022-10-31T09:57:30.583Z,21.83
2022-10-31T09:59:59.885Z,22.85
2022-10-31T10:02:33.021Z,22.60
2022-10-31T10:05:05.176Z,21.48
2022-10-31T10:07:46.349Z,20.50
2022-10-31T10:10:46.602Z,21.30
2022-10-31T10:13:40.168Z,21.55
2022-10-31T10:16:18.486Z,20.75
2022-10-31T10:19:00.469Z,20.75
2022-10-31T10:21:39.693Z,19.58
2022-10-31T10:24:24.659Z,19.48
2022-10-31T10:27:01.796Z,18.90
2022-10-31T10:29:35.781Z,18.45
2022-10-31T10:32:12.139Z,19.25
2022-10-31T10:34:47.175Z,18.80
2022-10-31T10:37:26.264Z,18.08
2022-10-31T10:39:58.221Z,18.08
2022-10-31T10:42:47.299Z,18.48
2022-10-31T10:45:36.407Z,18.35
2022-10-31T10:48:16.495Z,16.98
2022-10-31T10:50:50.323Z,17.38
2022-10-31T10:53:49.849Z,17.85
2022-10-31T10:56:22.794Z,16.73
2022-10-31T10:58:51.241Z,17.40
2022-10-31T11:01:19.350Z,17.25
2022-10-31T11:03:47.530Z,17.10
2022-10-31T11:06:23.207Z,16.65
2022-10-31T11:08:53.172Z,17.67
2022-10-31T11:11:28.750Z,16.92
2022-10-31T11:14:01.660Z,17.15
2022-10-31T11:16:38.130Z,15.93
2022-10-31T11:19:16.927Z,16.23
2022-10-31T11:21:52.663Z,16.77
2022-10-31T11:24:27.143Z,17.13
2022-10-31T11:27:12.747Z,17.52
2022-10-31T11:29:41.023Z,17.77
2022-10-31T11:32:20.259Z,16.83
2022-10-31T11:34:51.666Z,16.90
2022-10-31T11:37:23.133Z,17.70
2022-10-31T11:39:58.095Z,17.63
2022-10-31T11:42:29.093Z,17.98
2022-10-31T11:44:58.341Z,17.88
2022-10-31T11:47:30.614Z,15.95
2022-10-31T11:50:03.603Z,18.38
2022-10-31T11:52:34.021Z,16.70
2022-10-31T11:55:17.830Z,17.63
2022-10-31T11:57:49.214Z,17.65
2022-10-31T12:00:25.291Z,16.48
2022-10-31T12:03:06.256Z,17.98
2022-10-31T12:05:35.586Z,18.40
2022-10-31T12:08:04.778Z,18.20
2022-10-31T12:10:42.821Z,18.77
2022-10-31T12:13:27.031Z,17.73
2022-10-31T12:16:04.475Z,18.02
2022-10-31T12:18:49.589Z,17.92
2022-10-31T12:21:38.012Z,17.88
2022-10-31T12:24:20.362Z,17.98
2022-10-31T12:26:59.901Z,17.02
2022-10-31T12:29:47.924Z,16.90
2022-10-31T12:32:30.416Z,17.80
2022-10-31T12:35:18.259Z,17.13
2022-10-31T12:38:00.234Z,17.00
2022-10-31T12:40:44.042Z,17.45
2022-10-31T12:43:29.065Z,17.35
2022-10-31T12:45:59.031Z,16.45
2022-10-31T12:48:40.155Z,17.02
2022-10-31T12:51:17.447Z,16.40
2022-10-31T12:53:57.674Z,16.73
2022-10-31T12:56:39.378Z,16.13
2022-10-31T12:59:15.711Z,15.48
2022-10-31T13:01:49.787Z,15.93
2022-10-31T13:04:22.536Z,15.77
2022-10-31T13:06:56.109Z,15.68
2022-10-31T13:09:31.641Z,14.68
2022-10-31T13:12:04.448Z,15.40
2022-10-31T13:14:39.152Z,15.48
2022-10-31T13:17:08.714Z,15.23
2022-10-31T13:19:40.773Z,14.70
2022-10-31T13:22:13.817Z,15.93
2022-10-31T13:24:47.033Z,14.95
2022-10-31T13:27:19.431Z,15.55
2022-10-31T13:30:01.619Z,16.63
2022-10-31T13:32:38.542Z,15.20
2022-10-31T13:35:14.877Z,15.07
2022-10-31T13:37:49.780Z,14.95
2022-10-31T13:40:35.133Z,15.90
2022-10-31T13:43:11.596Z,15.18
2022-10-31T13:45:50.603Z,15.35
2022-10-31T13:48:36.605Z,21.08
2022-10-31T13:51:08.286Z,21.40
2022-10-31T13:53:46.590Z,21.80
2022-10-31T13:56:19.748Z,22.90
2022-10-31T13:59:21.474Z,23.23
2022-10-31T14:01:54.009Z,23.10
2022-10-31T14:04:26.340Z,22.23
2022-10-31T14:07:01.224Z,24.60
2022-10-31T14:09:35.344Z,25.25
2022-10-31T14:12:06.692Z,25.48
2022-10-31T14:14:46.717Z,26.40
2022-10-31T14:17:28.935Z,26.70
2022-10-31T14:20:23.908Z,26.38
2022-10-31T14:22:52.271Z,25.75
2022-10-31T14:25:31.894Z,26.83
2022-10-31T14:28:02.902Z,24.67
2022-10-31T14:30:32.304Z,25.55
2022-10-31T14:33:04.989Z,25.35
2022-10-31T14:35:48.146Z,25.75
2022-10-31T14:38:48.197Z,23.85
2022-10-31T14:41:34.297Z,22.98
2022-10-31T14:44:36.378Z,22.35
2022-10-31T14:47:14.228Z,22.92
2022-10-31T14:50:12.862Z,24.08
2022-10-31T14:52:43.021Z,23.85
2022-10-31T14:55:16.457Z,24.85
2022-10-31T14:57:54.435Z,25.17
2022-10-31T15:00:25.406Z,26.95
2022-10-31T15:03:06.655Z,27.88
2022-10-31T15:05:42.935Z,28.00
2022-10-31T15:08:28.744Z,28.25
2022-10-31T15:10:57.148Z,27.05
2022-10-31T15:13:25.324Z,28.10
2022-10-31T15:15:57.389Z,28.63
2022-10-31T15:18:27.684Z,28.73
2022-10-31T15:20:58.762Z,30.58
2022-10-31T15:23:30.133Z,30.63
2022-10-31T15:26:02.811Z,30.48
2022-10-31T15:28:32.889Z,29.85
2022-10-31T15:31:03.236Z,31.38
2022-10-31T15:33:38.651Z,31.05
2022-10-31T15:36:25.504Z,32.47
2022-10-31T15:38:59.120Z,33.03
2022-10-31T15:41:34.740Z,32.75
2022-10-31T15:44:08.861Z,33.47
2022-10-31T15:46:37.152Z,33.20
2022-10-31T15:49:05.400Z,34.88
2022-10-31T15:51:38.390Z,32.13
2022-10-31T15:54:06.741Z,33.70
2022-10-31T15:56:35.206Z,33.95
2022-10-31T15:59:04.147Z,34.17
2022-10-31T16:01:34.209Z,33.25
2022-10-31T16:04:06.435Z,33.58
2022-10-31T16:06:37.133Z,32.00
2022-10-31T16:09:20.663Z,32.83
2022-10-31T16:11:49.037Z,32.33
2022-10-31T16:14:25.339Z,32.55
2022-10-31T16:16:56.572Z,32.47
2022-10-31T16:19:28.592Z,32.20
2022-10-31T16:22:06.058Z,34.17
2022-10-31T16:24:37.079Z,32.83
2022-10-31T16:27:07.279Z,31.90
2022-10-31T16:29:38.285Z,33.78
2022-10-31T16:32:06.978Z,33.30
2022-10-31T16:34:35.431Z,31.83
2022-10-31T16:37:05.616Z,32.00
2022-10-31T16:39:33.811Z,33.60
2022-10-31T16:42:02.226Z,32.72
2022-10-31T16:44:30.519Z,32.88
2022-10-31T16:47:14.997Z,32.67
2022-10-31T16:49:43.790Z,34.53
2022-10-31T16:52:13.928Z,33.70
2022-10-31T16:54:42.192Z,34.30
2022-10-31T16:57:16.901Z,33.63
2022-10-31T16:59:46.443Z,35.75
2022-10-31T17:02:17.620Z,33.53
2022-10-31T17:04:47.600Z,35.42
2022-10-31T17:07:19.386Z,35.95
2022-10-31T17:09:47.523Z,38.10
2022-10-31T17:12:19.709Z,39.03
2022-10-31T17:14:51.468Z,38.03
2022-10-31T17:17:20.005Z,40.20
2022-10-31T17:19:48.171Z,39.83
2022-10-31T17:22:18.294Z,40.95
2022-10-31T17:24:46.457Z,39.55
2022-10-31T17:27:14.661Z,41.30
2022-10-31T17:29:42.852Z,40.80
2022-10-31T17:32:11.105Z,40.60
2022-10-31T17:34:39.260Z,41.67
2022-10-31T17:37:07.827Z,40.45
2022-10-31T17:39:37.346Z,40.70
2022-10-31T17:42:05.673Z,41.60
2022-10-31T17:44:33.863Z,41.35
2022-10-31T17:47:02.330Z,39.75
2022-10-31T17:49:30.615Z,41.47
2022-10-31T17:51:58.866Z,40.75
2022-10-31T17:54:27.043Z,40.75
2022-10-31T17:56:56.757Z,40.75
2022-10-31T17:59:24.935Z,40.83
2022-10-31T18:01:53.336Z,41.63
2022-10-31T18:04:21.710Z,41.28
2022-10-31T18:06:51.066Z,39.63
2022-10-31T18:09:19.241Z,38.50
2022-10-31T18:11:47.496Z,38.42
2022-10-31T18:14:17.150Z,39.38
2022-10-31T18:16:45.436Z,37.85
2022-10-31T18:19:16.147Z,42.38
2022-10-31T18:21:45.818Z,42.63
2022-10-31T18:24:14.278Z,39.53
2022-10-31T18:26:42.502Z,42.22
2022-10-31T18:29:12.616Z,41.55
2022-10-31T18:31:42.175Z,41.75
2022-10-31T18:34:10.391Z,40.83
2022-10-31T18:36:38.727Z,41.17
2022-10-31T18:39:06.888Z,42.10
2022-10-31T18:41:35.652Z,41.42
2022-10-31T18:44:03.906Z,42.05
2022-10-31T18:46:32.183Z,40.83
2022-10-31T18:49:02.360Z,40.50
2022-10-31T18:51:30.865Z,39.00
2022-10-31T18:54:00.855Z,40.90
2022-10-31T18:56:31.658Z,39.42
2022-10-31T18:59:02.318Z,38.00
2022-10-31T19:01:31.407Z,37.90
2022-10-31T19:04:01.551Z,38.92
2022-10-31T19:06:30.934Z,39.38
2022-10-31T19:09:01.026Z,42.75
2022-10-31T19:11:29.731Z,41.45
2022-10-31T19:13:58.833Z,39.33
2022-10-31T19:16:27.215Z,42.50
2022-10-31T19:18:56.690Z,40.42
2022-10-31T19:21:27.537Z,40.92
2022-10-31T19:23:57.412Z,42.25
2022-10-31T19:26:25.867Z,42.20
2022-10-31T19:28:54.614Z,41.85
2022-10-31T19:31:23.055Z,40.85
2022-10-31T19:33:51.276Z,40.85
2022-10-31T19:36:22.108Z,41.38
2022-10-31T19:38:53.910Z,40.38
2022-10-31T19:41:24.105Z,44.05
2022-10-31T19:43:52.286Z,41.85
2022-10-31T19:46:33.841Z,40.78
2022-10-31T19:49:11.139Z,35.13
2022-10-31T19:51:39.341Z,35.30
2022-10-31T19:54:09.016Z,34.33
2022-10-31T19:56:37.231Z,35.72
2022-10-31T19:59:05.506Z,32.08
2022-10-31T20:01:33.808Z,32.45
2022-10-31T20:04:02.190Z,30.88
2022-10-31T20:06:32.277Z,31.63
2022-10-31T20:09:02.650Z,32.05
2022-10-31T20:11:32.276Z,31.77
2022-10-31T20:14:01.360Z,32.53
2022-10-31T20:16:29.921Z,32.17
2022-10-31T20:18:59.729Z,35.40
2022-10-31T20:21:30.603Z,38.10
2022-10-31T20:24:00.246Z,34.42
2022-10-31T20:26:29.232Z,35.90
2022-10-31T20:29:00.042Z,41.00
2022-10-31T20:31:30.191Z,39.00
2022-10-31T20:33:58.363Z,37.55
2022-10-31T20:36:28.811Z,33.65
2022-10-31T20:38:56.963Z,31.25
2022-10-31T20:41:25.298Z,30.45
2022-10-31T20:43:53.737Z,29.85
2022-10-31T20:46:27.103Z,29.40
2022-10-31T20:48:56.241Z,29.23
2022-10-31T20:51:27.984Z,34.35
2022-10-31T20:53:58.580Z,29.80
2022-10-31T20:56:28.567Z,29.92
2022-10-31T20:59:00.364Z,29.92
2022-10-31T21:01:33.275Z,31.63
2022-10-31T21:04:01.726Z,31.75
2022-10-31T21:06:30.696Z,31.05
2022-10-31T21:08:59.374Z,31.33
2022-10-31T21:11:28.644Z,30.95
2022-10-31T21:13:56.967Z,30.85
2022-10-31T21:16:27.677Z,31.27
2022-10-31T21:18:57.626Z,31.00
2022-10-31T21:21:32.151Z,31.40
2022-10-31T21:24:03.056Z,31.65
2022-10-31T21:26:33.702Z,31.50
2022-10-31T21:29:01.983Z,33.45
2022-10-31T21:31:31.433Z,31.38
2022-10-31T21:34:00.916Z,31.08
2022-10-31T21:36:29.177Z,31.88
2022-10-31T21:38:57.790Z,33.05
2022-10-31T21:41:27.058Z,32.30
2022-10-31T21:43:56.227Z,31.67
2022-10-31T21:46:25.976Z,32.58
2022-10-31T21:48:54.686Z,32.67
2022-10-31T21:51:26.493Z,31.67
2022-10-31T21:54:12.785Z,32.88
2022-10-31T21:56:41.347Z,33.42
2022-10-31T21:59:10.810Z,31.88
2022-10-31T22:01:39.171Z,33.00
2022-10-31T22:04:07.890Z,33.08
2022-10-31T22:06:38.274Z,32.50
2022-10-31T22:09:08.818Z,31.35
2022-10-31T22:11:37.446Z,32.20
2022-10-31T22:14:05.814Z,32.10
2022-10-31T22:16:36.551Z,33.05
2022-10-31T22:19:06.226Z,33.67
2022-10-31T22:21:39.838Z,33.70
2022-10-31T22:24:09.083Z,33.15
2022-10-31T22:26:38.233Z,34.13
2022-10-31T22:29:08.426Z,32.42
2022-10-31T22:31:40.012Z,33.30
2022-10-31T22:34:08.558Z,31.85
2022-10-31T22:36:38.931Z,32.30
2022-10-31T22:39:08.031Z,33.08
2022-10-31T22:41:37.680Z,32.90
2022-10-31T22:44:06.782Z,30.27
2022-10-31T22:46:37.418Z,30.65
2022-10-31T22:49:07.728Z,29.88
2022-10-31T22:51:39.234Z,29.60
2022-10-31T22:54:10.919Z,29.25
2022-10-31T22:56:39.143Z,30.13
2022-10-31T22:59:07.390Z,31.30
2022-10-31T23:01:36.436Z,29.98
2022-10-31T23:04:04.770Z,29.90
2022-10-31T23:06:34.251Z,30.23
2022-10-31T23:09:07.305Z,28.23
2022-10-31T23:11:38.480Z,29.95
2022-10-31T23:14:10.547Z,29.27
2022-10-31T23:16:43.640Z,29.35
2022-10-31T23:19:13.619Z,29.73
2022-10-31T23:21:56.501Z,29.63
2022-10-31T23:24:29.319Z,27.67
2022-10-31T23:27:07.766Z,27.95
2022-10-31T23:29:37.994Z,28.83
2022-10-31T23:32:07.679Z,26.42
2022-10-31T23:34:35.823Z,26.77
2022-10-31T23:37:04.184Z,27.50
2022-10-31T23:39:33.723Z,27.48
2022-10-31T23:42:02.219Z,26.10
2022-10-31T23:44:30.376Z,26.70
2022-10-31T23:46:58.610Z,25.73
2022-10-31T23:49:26.772Z,25.55
2022-10-31T23:51:56.658Z,25.92
2022-10-31T23:54:25.082Z,26.88
2022-10-31T23:56:55.111Z,26.10
2022-10-31T23:59:23.522Z,27.25
